createdAt,value
2024-01-14T00:01:41.533Z,1.77
2024-01-14T00:04:09.382Z,7.83
2024-01-14T00:06:37.301Z,5.50
2024-01-14T00:09:05.193Z,5.00
2024-01-14T00:11:33.093Z,7.00
2024-01-14T00:14:00.833Z,7.47
2024-01-14T00:16:30.910Z,4.37
2024-01-14T00:18:58.966Z,7.03
2024-01-14T00:21:26.824Z,7.00
2024-01-14T00:23:54.710Z,4.97
2024-01-14T00:26:26.061Z,7.57
2024-01-14T00:28:57.224Z,6.30
2024-01-14T00:31:25.410Z,6.10
2024-01-14T00:33:53.494Z,7.10
2024-01-14T00:36:21.578Z,7.17
2024-01-14T00:38:49.522Z,6.03
2024-01-14T00:41:17.442Z,5.30
2024-01-14T00:43:45.480Z,4.47
2024-01-14T00:46:13.789Z,4.27
2024-01-14T00:48:41.751Z,6.77
2024-01-14T00:51:09.627Z,8.13
2024-01-14T00:53:37.575Z,7.53
2024-01-14T00:56:05.427Z,6.80
2024-01-14T00:58:33.216Z,3.93
2024-01-14T01:01:01.079Z,6.47
2024-01-14T01:03:29.089Z,5.33
2024-01-14T01:05:56.984Z,5.20
2024-01-14T01:08:24.958Z,6.07
2024-01-14T01:10:52.712Z,6.90
2024-01-14T01:13:20.500Z,4.03
2024-01-14T01:15:48.411Z,7.30
2024-01-14T01:18:16.354Z,7.90
2024-01-14T01:20:44.133Z,6.10
2024-01-14T01:23:11.913Z,7.60
2024-01-14T01:25:39.673Z,6.73
2024-01-14T01:28:07.435Z,5.80
2024-01-14T01:30:35.353Z,8.00
2024-01-14T01:33:03.426Z,7.33
2024-01-14T01:35:31.389Z,6.60
2024-01-14T01:37:59.105Z,6.60
2024-01-14T01:40:26.933Z,6.37
2024-01-14T01:42:54.769Z,6.10
2024-01-14T01:45:22.574Z,3.03
2024-01-14T01:47:50.416Z,8.20
2024-01-14T01:50:18.358Z,6.90
2024-01-14T01:52:46.468Z,8.07
2024-01-14T01:55:15.137Z,7.63
2024-01-14T01:57:42.991Z,7.70
2024-01-14T02:00:11.288Z,6.87
2024-01-14T02:02:44.280Z,2.67
2024-01-14T02:05:12.345Z,7.47
2024-01-14T02:07:40.990Z,7.40
2024-01-14T02:10:09.037Z,5.30
2024-01-14T02:12:36.890Z,5.10
2024-01-14T02:15:04.938Z,8.23
2024-01-14T02:17:32.862Z,6.60
2024-01-14T02:20:00.924Z,4.67
2024-01-14T02:22:33.225Z,5.03
2024-01-14T02:25:01.263Z,7.33
2024-01-14T02:27:29.169Z,6.77
2024-01-14T02:29:58.291Z,6.60
2024-01-14T02:32:26.101Z,7.20
2024-01-14T02:34:54.232Z,8.67
2024-01-14T02:37:21.972Z,4.90
2024-01-14T02:39:49.930Z,7.77
2024-01-14T02:42:17.706Z,8.30
2024-01-14T02:44:45.526Z,3.13
2024-01-14T02:47:13.292Z,7.70
2024-01-14T02:49:41.127Z,8.73
2024-01-14T02:52:08.818Z,6.17
2024-01-14T02:54:36.683Z,8.80
2024-01-14T02:57:04.775Z,6.00
2024-01-14T02:59:34.287Z,3.67
2024-01-14T03:02:02.595Z,8.43
2024-01-14T03:04:30.416Z,9.07
2024-01-14T03:06:58.432Z,9.90
2024-01-14T03:09:26.454Z,6.77
2024-01-14T03:11:54.357Z,7.00
2024-01-14T03:14:22.060Z,7.70
2024-01-14T03:16:49.925Z,4.83
2024-01-14T03:19:18.193Z,8.23
2024-01-14T03:21:46.574Z,8.40
2024-01-14T03:24:14.370Z,8.33
2024-01-14T03:26:42.233Z,7.47
2024-01-14T03:29:09.981Z,8.37
2024-01-14T03:31:37.946Z,7.37
2024-01-14T03:34:05.795Z,7.93
2024-01-14T03:36:33.982Z,8.90
2024-01-14T03:39:02.028Z,8.13
2024-01-14T03:41:29.901Z,8.73
2024-01-14T03:43:57.810Z,8.53
2024-01-14T03:46:25.660Z,7.57
2024-01-14T03:48:53.561Z,8.07
2024-01-14T03:51:21.641Z,7.73
2024-01-14T03:53:49.769Z,8.53
2024-01-14T03:56:17.521Z,4.13
2024-01-14T03:58:45.334Z,7.77
2024-01-14T04:01:17.739Z,3.10
2024-01-14T04:03:46.090Z,7.70
2024-01-14T04:06:14.663Z,6.90
2024-01-14T04:08:42.640Z,5.67
2024-01-14T04:11:10.421Z,4.33
2024-01-14T04:13:38.393Z,4.37
2024-01-14T04:16:06.188Z,7.20
2024-01-14T04:18:34.012Z,4.77
2024-01-14T04:21:01.792Z,7.80
2024-01-14T04:23:29.665Z,8.17
2024-01-14T04:25:57.434Z,6.07
2024-01-14T04:28:25.284Z,6.57
2024-01-14T04:30:55.014Z,8.07
2024-01-14T04:33:23.645Z,7.33
2024-01-14T04:35:51.483Z,4.20
2024-01-14T04:38:19.325Z,7.63
2024-01-14T04:40:47.065Z,8.50
2024-01-14T04:43:15.060Z,8.20
2024-01-14T04:45:42.867Z,7.30
2024-01-14T04:48:10.914Z,8.33
2024-01-14T04:50:41.452Z,6.53
2024-01-14T04:53:09.494Z,8.13
2024-01-14T04:55:37.340Z,7.73
2024-01-14T04:58:05.235Z,6.07
2024-01-14T05:00:33.194Z,7.03
2024-01-14T05:03:01.015Z,6.43
2024-01-14T05:05:28.876Z,7.90
2024-01-14T05:07:56.724Z,6.30
2024-01-14T05:10:24.553Z,6.53
2024-01-14T05:12:52.260Z,8.67
2024-01-14T05:15:22.812Z,8.63
2024-01-14T05:17:51.583Z,9.37
2024-01-14T05:20:19.386Z,5.23
2024-01-14T05:22:47.159Z,6.67
2024-01-14T05:25:14.949Z,7.10
2024-01-14T05:27:42.820Z,6.67
2024-01-14T05:30:11.006Z,8.47
2024-01-14T05:32:38.921Z,8.57
2024-01-14T05:35:06.937Z,7.97
2024-01-14T05:37:34.625Z,8.20
2024-01-14T05:40:02.540Z,9.43
2024-01-14T05:42:30.370Z,6.67
2024-01-14T05:44:58.261Z,8.03
2024-01-14T05:47:26.024Z,8.60
2024-01-14T05:49:54.235Z,7.77
2024-01-14T05:52:21.975Z,5.57
2024-01-14T05:54:49.812Z,3.27
2024-01-14T05:57:17.643Z,7.43
2024-01-14T05:59:45.552Z,7.90
2024-01-14T06:02:13.389Z,8.10
2024-01-14T06:04:41.277Z,6.73
2024-01-14T06:07:09.239Z,8.87
2024-01-14T06:09:37.299Z,8.27
2024-01-14T06:12:05.281Z,6.93
2024-01-14T06:14:33.167Z,7.63
2024-01-14T06:17:00.862Z,7.97
2024-01-14T06:19:28.809Z,5.40
2024-01-14T06:21:56.553Z,6.53
2024-01-14T06:24:24.420Z,4.37
2024-01-14T06:26:54.023Z,7.50
2024-01-14T06:29:22.217Z,7.20
2024-01-14T06:31:50.134Z,7.07
2024-01-14T06:34:18.140Z,7.60
2024-01-14T06:36:45.989Z,6.37
2024-01-14T06:39:13.820Z,4.37
2024-01-14T06:41:42.322Z,7.37
2024-01-14T06:44:10.624Z,5.87
2024-01-14T06:46:43.556Z,6.80
2024-01-14T06:49:11.593Z,7.37
2024-01-14T06:51:46.225Z,7.23
2024-01-14T06:54:14.575Z,7.13
2024-01-14T06:56:46.677Z,6.70
2024-01-14T06:59:16.963Z,8.17
2024-01-14T07:01:44.844Z,9.37
2024-01-14T07:04:12.803Z,6.30
2024-01-14T07:06:40.784Z,5.20
2024-01-14T07:09:12.997Z,7.07
2024-01-14T07:11:41.005Z,7.17
2024-01-14T07:14:08.882Z,3.13
2024-01-14T07:16:37.476Z,4.17
2024-01-14T07:19:06.205Z,4.33
2024-01-14T07:21:34.196Z,6.77
2024-01-14T07:24:02.074Z,5.77
2024-01-14T07:26:29.845Z,4.80
2024-01-14T07:28:57.805Z,6.43
2024-01-14T07:31:30.045Z,5.47
2024-01-14T07:33:58.673Z,7.57
2024-01-14T07:36:26.659Z,5.50
2024-01-14T07:38:55.673Z,7.83
2024-01-14T07:41:23.547Z,5.63
2024-01-14T07:43:51.400Z,5.60
2024-01-14T07:46:19.734Z,6.53
2024-01-14T07:48:47.967Z,6.63
2024-01-14T07:51:15.845Z,4.60
2024-01-14T07:53:43.739Z,6.97
2024-01-14T07:56:11.535Z,3.07
2024-01-14T07:58:39.384Z,7.43
2024-01-14T08:01:10.480Z,4.17
2024-01-14T08:03:38.609Z,6.53
2024-01-14T08:06:06.860Z,3.40
2024-01-14T08:08:35.909Z,3.80
2024-01-14T08:11:03.660Z,5.87
2024-01-14T08:13:31.476Z,4.43
2024-01-14T08:16:02.689Z,3.30
2024-01-14T08:18:32.740Z,3.23
2024-01-14T08:21:01.678Z,5.77
2024-01-14T08:23:35.485Z,5.93
2024-01-14T08:26:04.032Z,6.03
2024-01-14T08:28:33.196Z,5.87
2024-01-14T08:31:01.235Z,5.60
2024-01-14T08:33:30.014Z,6.47
2024-01-14T08:35:58.396Z,5.27
2024-01-14T08:38:26.134Z,6.67
2024-01-14T08:40:54.242Z,4.73
2024-01-14T08:43:22.036Z,6.00
2024-01-14T08:45:49.970Z,6.70
2024-01-14T08:48:17.965Z,3.37
2024-01-14T08:50:46.075Z,6.53
2024-01-14T08:53:13.900Z,6.17
2024-01-14T08:55:41.684Z,5.77
2024-01-14T08:58:09.360Z,5.13
2024-01-14T09:00:37.205Z,5.47
2024-01-14T09:03:05.115Z,5.20
2024-01-14T09:05:33.048Z,5.40
2024-01-14T09:08:00.808Z,6.03
2024-01-14T09:10:28.717Z,6.70
2024-01-14T09:12:56.491Z,5.97
2024-01-14T09:15:24.426Z,6.30
2024-01-14T09:17:53.014Z,6.90
2024-01-14T09:20:21.151Z,6.17
2024-01-14T09:22:49.102Z,6.60
2024-01-14T09:25:17.343Z,6.17
2024-01-14T09:27:45.125Z,5.70
2024-01-14T09:30:14.365Z,6.13
2024-01-14T09:32:42.435Z,6.07
2024-01-14T09:35:10.376Z,5.80
2024-01-14T09:37:38.243Z,5.30
2024-01-14T09:40:06.374Z,6.70
2024-01-14T09:42:40.803Z,5.63
2024-01-14T09:45:09.587Z,2.50
2024-01-14T09:47:38.507Z,5.43
2024-01-14T09:50:08.099Z,6.10
2024-01-14T09:52:36.111Z,5.27
2024-01-14T09:55:05.013Z,5.30
2024-01-14T09:57:35.453Z,3.10
2024-01-14T10:00:07.147Z,6.27
2024-01-14T10:02:35.429Z,5.67
2024-01-14T10:05:03.272Z,5.13
2024-01-14T10:07:31.456Z,6.03
2024-01-14T10:09:59.724Z,4.93
2024-01-14T10:12:28.137Z,1.27
2024-01-14T10:15:00.303Z,5.87
2024-01-14T10:17:29.278Z,2.10
2024-01-14T10:19:59.273Z,6.17
2024-01-14T10:22:30.185Z,5.37
2024-01-14T10:24:58.463Z,5.60
2024-01-14T10:27:35.511Z,5.90
2024-01-14T10:30:07.288Z,5.53
2024-01-14T10:33:15.121Z,2.27
2024-01-14T10:35:26.863Z,5.00
2024-01-14T10:37:54.894Z,4.40
2024-01-14T10:40:23.897Z,4.73
2024-01-14T10:42:51.731Z,4.37
2024-01-14T10:45:19.872Z,3.40
2024-01-14T10:47:55.389Z,4.23
2024-01-14T10:50:28.497Z,5.30
2024-01-14T10:52:59.289Z,5.43
2024-01-14T10:55:30.236Z,5.30
2024-01-14T10:58:02.077Z,4.50
2024-01-14T11:00:30.447Z,5.07
2024-01-14T11:02:58.952Z,4.23
2024-01-14T11:05:27.265Z,2.43
2024-01-14T11:07:56.064Z,3.90
2024-01-14T11:10:24.065Z,2.87
2024-01-14T11:12:51.926Z,3.23
2024-01-14T11:15:31.228Z,5.30
2024-01-14T11:18:14.470Z,4.90
2024-01-14T11:20:57.805Z,4.83
2024-01-14T11:23:34.521Z,4.97
2024-01-14T11:26:03.483Z,3.57
2024-01-14T11:28:31.773Z,4.13
2024-01-14T11:31:02.419Z,4.90
2024-01-14T11:33:40.833Z,5.00
2024-01-14T11:36:09.854Z,4.27
2024-01-14T11:38:38.615Z,4.17
2024-01-14T11:41:36.786Z,5.30
2024-01-14T11:44:11.181Z,4.10
2024-01-14T11:46:39.012Z,3.07
2024-01-14T11:49:20.817Z,5.47
2024-01-14T11:51:53.725Z,4.13
2024-01-14T11:54:23.980Z,4.60
2024-01-14T11:56:52.334Z,5.50
2024-01-14T11:59:30.076Z,5.53
2024-01-14T12:02:16.206Z,4.80
2024-01-14T12:04:49.832Z,5.67
2024-01-14T12:07:23.411Z,4.83
2024-01-14T12:09:57.740Z,4.23
2024-01-14T12:12:29.100Z,4.30
2024-01-14T12:14:59.501Z,2.17
2024-01-14T12:17:28.226Z,3.43
2024-01-14T12:20:00.190Z,5.03
2024-01-14T12:22:28.290Z,3.87
2024-01-14T12:24:58.404Z,2.70
2024-01-14T12:27:28.122Z,4.30
2024-01-14T12:29:56.564Z,4.07
2024-01-14T12:32:25.090Z,4.10
2024-01-14T12:34:53.271Z,5.33
2024-01-14T12:37:23.577Z,2.40
2024-01-14T12:39:51.483Z,4.27
2024-01-14T12:42:19.415Z,4.33
2024-01-14T12:44:48.632Z,4.23
2024-01-14T12:47:19.914Z,3.80
2024-01-14T12:49:47.894Z,3.90
2024-01-14T12:52:16.111Z,2.67
2024-01-14T12:54:51.127Z,4.47
2024-01-14T12:57:23.550Z,4.60
2024-01-14T12:59:52.699Z,4.50
2024-01-14T13:02:20.869Z,4.53
2024-01-14T13:04:49.721Z,4.60
2024-01-14T13:07:17.967Z,4.37
2024-01-14T13:09:46.080Z,3.60
2024-01-14T13:12:13.966Z,4.57
2024-01-14T13:14:41.848Z,4.63
2024-01-14T13:17:09.645Z,4.73
2024-01-14T13:19:37.661Z,4.83
2024-01-14T13:22:06.666Z,4.50
2024-01-14T13:24:34.585Z,3.07
2024-01-14T13:27:02.343Z,3.07
2024-01-14T13:29:30.112Z,5.13
2024-01-14T13:31:58.868Z,3.20
2024-01-14T13:34:26.891Z,5.47
2024-01-14T13:36:55.906Z,4.13
2024-01-14T13:39:23.648Z,5.10
2024-01-14T13:41:51.635Z,5.00
2024-01-14T13:44:20.432Z,5.57
2024-01-14T13:46:48.721Z,4.67
2024-01-14T13:49:17.277Z,4.40
2024-01-14T13:51:46.233Z,5.33
2024-01-14T13:54:16.768Z,4.77
2024-01-14T13:56:45.605Z,4.63
2024-01-14T13:59:14.070Z,4.80
2024-01-14T14:01:43.038Z,4.33
2024-01-14T14:04:11.349Z,5.37
2024-01-14T14:06:40.148Z,4.93
2024-01-14T14:09:09.328Z,2.30
2024-01-14T14:11:37.931Z,4.87
2024-01-14T14:14:05.767Z,4.57
2024-01-14T14:16:40.281Z,4.53
2024-01-14T14:19:12.792Z,4.10
2024-01-14T14:21:54.211Z,4.43
2024-01-14T14:24:28.690Z,4.10
2024-01-14T14:26:56.707Z,3.83
2024-01-14T14:29:26.364Z,2.83
2024-01-14T14:31:56.235Z,4.80
2024-01-14T14:34:25.277Z,3.60
2024-01-14T14:36:54.573Z,3.67
2024-01-14T14:39:22.712Z,4.80
2024-01-14T14:41:50.982Z,4.50
2024-01-14T14:44:19.038Z,4.53
2024-01-14T14:46:47.621Z,4.17
2024-01-14T14:49:15.778Z,4.77
2024-01-14T14:51:43.678Z,4.57
2024-01-14T14:54:12.429Z,4.73
2024-01-14T14:56:41.173Z,5.63
2024-01-14T14:59:10.445Z,4.50
2024-01-14T15:01:43.258Z,3.90
2024-01-14T15:04:15.830Z,4.33
2024-01-14T15:06:45.879Z,4.80
2024-01-14T15:09:15.611Z,4.60
2024-01-14T15:11:43.921Z,4.50
2024-01-14T15:14:12.292Z,4.63
2024-01-14T15:16:42.774Z,4.40
2024-01-14T15:19:10.970Z,5.27
2024-01-14T15:21:39.262Z,5.23
2024-01-14T15:24:07.272Z,2.70
2024-01-14T15:26:35.195Z,3.73
2024-01-14T15:29:02.981Z,4.93
2024-01-14T15:31:31.271Z,4.53
2024-01-14T15:33:59.582Z,4.50
2024-01-14T15:36:28.080Z,4.63
2024-01-14T15:38:56.161Z,4.50
2024-01-14T15:41:26.434Z,5.03
2024-01-14T15:43:54.287Z,4.87
2024-01-14T15:46:22.149Z,13.73
2024-01-14T15:48:51.692Z,5.87
2024-01-14T15:51:19.768Z,14.57
2024-01-14T15:53:47.552Z,9.97
2024-01-14T15:56:15.512Z,7.73
2024-01-14T15:58:43.409Z,10.60
2024-01-14T16:01:13.677Z,8.90
2024-01-14T16:03:44.951Z,16.73
2024-01-14T16:06:15.090Z,26.23
2024-01-14T16:08:48.415Z,52.17
2024-01-14T16:11:16.893Z,32.50
2024-01-14T16:13:44.903Z,36.60
2024-01-14T16:16:12.715Z,21.93
2024-01-14T16:18:40.722Z,11.60
2024-01-14T16:21:09.304Z,10.07
2024-01-14T16:23:39.091Z,8.13
2024-01-14T16:26:08.727Z,8.77
2024-01-14T16:28:36.898Z,7.73
2024-01-14T16:31:12.182Z,7.87
2024-01-14T16:33:48.155Z,7.37
2024-01-14T16:36:17.889Z,8.60
2024-01-14T16:38:46.688Z,8.80
2024-01-14T16:41:14.773Z,6.90
2024-01-14T16:43:45.395Z,6.70
2024-01-14T16:46:13.973Z,7.57
2024-01-14T16:48:41.923Z,5.93
2024-01-14T16:51:12.240Z,7.37
2024-01-14T16:53:43.828Z,7.10
2024-01-14T16:56:13.538Z,6.90
2024-01-14T16:58:43.592Z,6.37
2024-01-14T17:01:16.540Z,6.17
2024-01-14T17:03:47.940Z,7.93
2024-01-14T17:06:17.440Z,6.60
2024-01-14T17:08:47.492Z,6.80
2024-01-14T17:11:16.282Z,6.97
2024-01-14T17:13:44.587Z,6.90
2024-01-14T17:16:24.312Z,7.40
2024-01-14T17:19:03.016Z,6.77
2024-01-14T17:21:31.470Z,6.80
2024-01-14T17:24:00.017Z,6.60
2024-01-14T17:26:28.178Z,6.27
2024-01-14T17:28:55.998Z,6.77
2024-01-14T17:31:24.547Z,6.67
2024-01-14T17:33:54.410Z,6.23
2024-01-14T17:36:22.985Z,6.97
2024-01-14T17:38:51.014Z,6.17
2024-01-14T17:41:19.546Z,6.43
2024-01-14T17:43:47.536Z,6.27
2024-01-14T17:46:16.747Z,5.77
2024-01-14T17:48:46.281Z,5.60
2024-01-14T17:51:16.085Z,6.47
2024-01-14T17:53:43.921Z,5.90
2024-01-14T17:56:14.216Z,5.80
2024-01-14T17:58:42.677Z,5.97
2024-01-14T18:01:13.454Z,6.07
2024-01-14T18:03:42.324Z,6.30
2024-01-14T18:06:13.580Z,5.73
2024-01-14T18:08:41.655Z,6.03
2024-01-14T18:11:13.071Z,5.80
2024-01-14T18:13:41.032Z,5.93
2024-01-14T18:16:08.892Z,6.10
2024-01-14T18:18:40.455Z,6.80
2024-01-14T18:21:14.179Z,6.10
2024-01-14T18:23:42.240Z,6.57
2024-01-14T18:26:09.979Z,5.83
2024-01-14T18:28:37.888Z,6.63
2024-01-14T18:31:05.955Z,5.43
2024-01-14T18:33:34.123Z,5.27
2024-01-14T18:36:02.147Z,5.53
2024-01-14T18:38:29.987Z,6.00
2024-01-14T18:40:57.992Z,6.40
2024-01-14T18:43:25.825Z,5.73
2024-01-14T18:45:54.010Z,5.07
2024-01-14T18:48:22.016Z,5.87
2024-01-14T18:50:50.359Z,5.87
2024-01-14T18:53:18.302Z,6.27
2024-01-14T18:55:46.263Z,5.10
2024-01-14T18:58:17.213Z,5.80
2024-01-14T19:00:45.109Z,5.67
2024-01-14T19:03:13.049Z,6.97
2024-01-14T19:05:42.948Z,6.57
2024-01-14T19:08:10.804Z,5.80
2024-01-14T19:10:39.410Z,6.30
2024-01-14T19:13:07.270Z,6.17
2024-01-14T19:15:35.055Z,5.57
2024-01-14T19:18:02.990Z,5.43
2024-01-14T19:20:30.832Z,6.10
2024-01-14T19:23:01.995Z,6.87
2024-01-14T19:25:30.921Z,6.67
2024-01-14T19:27:58.762Z,6.50
2024-01-14T19:30:27.014Z,5.57
2024-01-14T19:32:55.043Z,6.77
2024-01-14T19:35:22.950Z,5.93
2024-01-14T19:37:50.762Z,6.10
2024-01-14T19:40:18.555Z,6.43
2024-01-14T19:42:47.533Z,6.00
2024-01-14T19:45:15.614Z,5.13
2024-01-14T19:47:43.399Z,6.83
2024-01-14T19:50:12.384Z,6.17
2024-01-14T19:52:43.344Z,5.87
2024-01-14T19:55:19.603Z,6.70
2024-01-14T19:57:49.863Z,6.53
2024-01-14T20:00:18.583Z,5.67
2024-01-14T20:02:46.500Z,6.57
2024-01-14T20:05:14.501Z,6.53
2024-01-14T20:07:42.743Z,6.80
2024-01-14T20:10:10.592Z,6.17
2024-01-14T20:12:38.616Z,6.90
2024-01-14T20:15:06.854Z,6.23
2024-01-14T20:17:34.736Z,6.23
2024-01-14T20:20:02.698Z,7.23
2024-01-14T20:22:30.606Z,5.37
2024-01-14T20:25:01.607Z,6.50
2024-01-14T20:27:29.576Z,7.03
2024-01-14T20:29:57.364Z,7.13
2024-01-14T20:32:25.449Z,5.47
2024-01-14T20:34:53.263Z,5.87
2024-01-14T20:37:25.527Z,6.97
2024-01-14T20:39:53.654Z,6.87
2024-01-14T20:42:21.428Z,6.93
2024-01-14T20:44:55.884Z,7.27
2024-01-14T20:47:24.469Z,7.50
2024-01-14T20:49:52.469Z,6.40
2024-01-14T20:52:20.708Z,7.33
2024-01-14T20:54:48.529Z,6.03
2024-01-14T20:57:16.426Z,7.23
2024-01-14T20:59:44.826Z,6.63
2024-01-14T21:02:12.665Z,7.43
2024-01-14T21:04:40.558Z,6.90
2024-01-14T21:07:08.384Z,8.37
2024-01-14T21:09:37.597Z,4.30
2024-01-14T21:12:07.005Z,7.07
2024-01-14T21:14:35.446Z,6.70
2024-01-14T21:17:04.204Z,6.10
2024-01-14T21:19:32.410Z,6.10
2024-01-14T21:22:00.334Z,6.57
2024-01-14T21:24:28.075Z,6.50
2024-01-14T21:26:55.918Z,6.63
2024-01-14T21:29:23.763Z,7.30
2024-01-14T21:31:51.497Z,7.77
2024-01-14T21:34:19.377Z,6.83
2024-01-14T21:36:47.336Z,6.77
2024-01-14T21:39:15.129Z,7.83
2024-01-14T21:41:42.949Z,7.33
2024-01-14T21:44:10.728Z,7.67
2024-01-14T21:46:38.510Z,5.97
2024-01-14T21:49:06.402Z,7.80
2024-01-14T21:51:34.234Z,8.53
2024-01-14T21:54:02.084Z,7.13
2024-01-14T21:56:29.925Z,7.03
2024-01-14T21:58:57.656Z,6.73
2024-01-14T22:01:25.520Z,8.50
2024-01-14T22:03:53.376Z,7.40
2024-01-14T22:06:21.312Z,7.43
2024-01-14T22:08:49.118Z,7.20
2024-01-14T22:11:16.862Z,7.80
2024-01-14T22:13:44.665Z,8.07
2024-01-14T22:16:13.116Z,9.00
2024-01-14T22:18:41.231Z,7.70
2024-01-14T22:21:09.015Z,8.00
2024-01-14T22:23:39.181Z,7.53
2024-01-14T22:26:07.934Z,7.97
2024-01-14T22:28:35.617Z,7.87
2024-01-14T22:31:03.613Z,7.57
2024-01-14T22:33:31.874Z,9.03
2024-01-14T22:35:59.836Z,8.43
2024-01-14T22:38:27.651Z,7.67
2024-01-14T22:40:55.409Z,8.20
2024-01-14T22:43:25.253Z,8.00
2024-01-14T22:45:53.732Z,7.60
2024-01-14T22:48:21.695Z,7.87
2024-01-14T22:50:49.707Z,8.70
2024-01-14T22:53:17.464Z,7.70
2024-01-14T22:55:45.310Z,7.87
2024-01-14T22:58:14.119Z,8.53
2024-01-14T23:00:42.113Z,7.17
2024-01-14T23:03:10.110Z,5.67
2024-01-14T23:05:38.180Z,7.47
2024-01-14T23:08:06.512Z,7.40
2024-01-14T23:10:34.276Z,7.50
2024-01-14T23:13:02.042Z,8.03
2024-01-14T23:15:29.847Z,7.57
2024-01-14T23:17:57.749Z,7.20
2024-01-14T23:20:25.495Z,6.87
2024-01-14T23:22:53.355Z,7.47
2024-01-14T23:25:21.222Z,5.63
2024-01-14T23:27:49.135Z,3.93
2024-01-14T23:30:17.376Z,7.17
2024-01-14T23:32:45.242Z,6.40
2024-01-14T23:35:13.039Z,6.70
2024-01-14T23:37:41.178Z,5.93
2024-01-14T23:40:09.368Z,8.87
2024-01-14T23:42:37.574Z,3.87
2024-01-14T23:45:05.545Z,8.33
2024-01-14T23:47:33.296Z,8.13
2024-01-14T23:50:01.292Z,9.47
2024-01-14T23:52:29.087Z,8.33
2024-01-14T23:54:56.849Z,5.83
2024-01-14T23:57:24.706Z,6.17
2024-01-14T23:59:52.415Z,9.13
